createdAt,value
2019-06-15T00:00:37.680Z,101353.45
2019-06-15T00:03:41.547Z,101348.18
2019-06-15T00:06:45.405Z,101347.53
2019-06-15T00:09:49.571Z,101337.73
2019-06-15T00:12:53.506Z,101339.28
2019-06-15T00:15:57.382Z,101349.42
2019-06-15T00:19:01.230Z,101342.82
2019-06-15T00:22:05.160Z,101340.88
2019-06-15T00:25:09.182Z,101343.56
2019-06-15T00:28:13.017Z,101342.71
2019-06-15T00:31:16.901Z,101332.33
2019-06-15T00:34:20.727Z,101318.26
2019-06-15T00:37:24.627Z,101308.19
2019-06-15T00:40:28.534Z,101308.67
2019-06-15T00:43:32.473Z,101300.08
2019-06-15T00:46:36.366Z,101284.98
2019-06-15T00:49:40.342Z,101277.19
2019-06-15T00:52:44.346Z,101269.38
2019-06-15T00:55:48.183Z,101268.38
2019-06-15T00:58:52.131Z,101268.88
2019-06-15T01:01:56.016Z,101273.80
2019-06-15T01:04:59.850Z,101252.94
2019-06-15T01:08:03.681Z,101238.58
2019-06-15T01:11:07.626Z,101241.11
2019-06-15T01:14:11.445Z,101241.66
2019-06-15T01:17:15.391Z,101241.41
2019-06-15T01:20:19.382Z,101237.78
2019-06-15T01:23:23.219Z,101232.02
2019-06-15T01:26:27.045Z,101233.06
2019-06-15T01:29:30.869Z,101222.75
2019-06-15T01:32:34.739Z,101221.80
2019-06-15T01:35:38.561Z,101214.64
2019-06-15T01:38:42.400Z,101211.38
2019-06-15T01:41:46.268Z,101209.84
2019-06-15T01:44:50.142Z,101205.86
2019-06-15T01:47:54.076Z,101199.89
2019-06-15T01:50:57.910Z,101203.12
2019-06-15T01:54:01.846Z,101191.79
2019-06-15T01:57:05.856Z,101178.83
2019-06-15T02:00:11.752Z,101176.94
2019-06-15T02:03:15.566Z,101185.57
2019-06-15T02:06:19.420Z,101181.27
2019-06-15T02:09:23.241Z,101156.20
2019-06-15T02:12:27.102Z,101155.00
2019-06-15T02:15:31.301Z,101157.06
2019-06-15T02:18:36.690Z,101151.93
2019-06-15T02:21:40.463Z,101146.02
2019-06-15T02:24:44.326Z,101156.42
2019-06-15T02:27:48.141Z,101149.20
2019-06-15T02:30:51.998Z,101152.13
2019-06-15T02:33:55.841Z,101147.22
2019-06-15T02:36:59.782Z,101139.81
2019-06-15T02:40:04.109Z,101137.96
2019-06-15T02:43:08.074Z,101137.02
2019-06-15T02:46:12.089Z,101124.53
2019-06-15T02:49:16.073Z,101124.62
2019-06-15T02:52:20.014Z,101120.20
2019-06-15T02:55:24.017Z,101121.54
2019-06-15T02:58:27.945Z,101128.28
2019-06-15T03:01:31.929Z,101126.04
2019-06-15T03:04:35.796Z,101121.52
2019-06-15T03:07:39.695Z,101123.08
2019-06-15T03:10:44.323Z,101114.87
2019-06-15T03:13:48.291Z,101108.48
2019-06-15T03:16:52.145Z,101101.48
2019-06-15T03:19:56.023Z,101107.87
2019-06-15T03:22:59.874Z,101114.91
2019-06-15T03:26:05.763Z,101101.91
2019-06-15T03:29:09.505Z,101109.09
2019-06-15T03:32:13.355Z,101107.48
2019-06-15T03:35:17.959Z,101099.72
2019-06-15T03:38:21.851Z,101108.13
2019-06-15T03:41:25.675Z,101108.77
2019-06-15T03:44:29.573Z,101111.55
2019-06-15T03:47:33.417Z,101107.09
2019-06-15T03:50:37.338Z,101106.15
2019-06-15T03:53:41.169Z,101104.71
2019-06-15T03:56:45.028Z,101094.31
2019-06-15T03:59:48.871Z,101080.66
2019-06-15T04:02:52.697Z,101079.55
2019-06-15T04:05:56.615Z,101079.58
2019-06-15T04:09:00.520Z,101091.30
2019-06-15T04:12:04.574Z,101090.98
2019-06-15T04:15:08.625Z,101086.94
2019-06-15T04:18:12.487Z,101087.45
2019-06-15T04:21:16.346Z,101089.07
2019-06-15T04:24:20.183Z,101084.81
2019-06-15T04:27:24.109Z,101085.20
2019-06-15T04:30:28.032Z,101081.75
2019-06-15T04:33:31.945Z,101091.72
2019-06-15T04:36:35.805Z,101089.18
2019-06-15T04:39:39.679Z,101085.78
2019-06-15T04:42:43.530Z,101073.14
2019-06-15T04:45:47.435Z,101065.16
2019-06-15T04:48:51.260Z,101062.41
2019-06-15T04:51:55.102Z,101063.34
2019-06-15T04:54:58.954Z,101054.35
2019-06-15T04:58:02.890Z,101053.73
2019-06-15T05:01:06.796Z,101060.50
2019-06-15T05:04:10.650Z,101059.72
2019-06-15T05:07:14.526Z,101058.31
2019-06-15T05:10:18.508Z,101045.41
2019-06-15T05:13:22.436Z,101039.91
2019-06-15T05:16:26.358Z,101055.69
2019-06-15T05:19:30.258Z,101071.59
2019-06-15T05:22:34.273Z,101066.62
2019-06-15T05:25:38.119Z,101076.17
2019-06-15T05:28:41.978Z,101064.16
2019-06-15T05:31:45.805Z,101057.09
2019-06-15T05:34:49.795Z,101034.77
2019-06-15T05:37:53.757Z,101027.51
2019-06-15T05:40:57.580Z,101039.36
2019-06-15T05:44:01.448Z,101058.96
2019-06-15T05:47:05.529Z,101051.13
2019-06-15T05:50:09.465Z,101041.68
2019-06-15T05:53:13.382Z,101041.39
2019-06-15T05:56:17.242Z,101025.83
2019-06-15T05:59:21.084Z,101028.28
2019-06-15T06:02:25.024Z,101032.38
2019-06-15T06:05:28.874Z,101023.93
2019-06-15T06:08:32.815Z,101021.80
2019-06-15T06:11:36.727Z,101018.17
2019-06-15T06:14:40.547Z,101018.42
2019-06-15T06:17:44.474Z,101028.10
2019-06-15T06:20:48.292Z,101031.91
2019-06-15T06:23:52.184Z,101026.09
2019-06-15T06:26:56.048Z,101009.97
2019-06-15T06:29:59.936Z,101007.48
2019-06-15T06:33:03.907Z,101002.89
2019-06-15T06:36:07.753Z,101003.69
2019-06-15T06:39:11.603Z,100995.59
2019-06-15T06:42:15.428Z,100978.91
2019-06-15T06:45:20.023Z,100961.60
2019-06-15T06:48:23.865Z,100952.81
2019-06-15T06:51:27.707Z,100951.81
2019-06-15T06:54:31.513Z,100933.05
2019-06-15T06:57:35.523Z,100921.50
2019-06-15T07:00:39.320Z,100932.24
2019-06-15T07:03:43.138Z,100936.48
2019-06-15T07:06:46.960Z,100935.78
2019-06-15T07:09:50.786Z,100934.89
2019-06-15T07:12:54.665Z,100929.45
2019-06-15T07:15:58.577Z,100927.02
2019-06-15T07:19:02.411Z,100912.95
2019-06-15T07:22:06.234Z,100915.66
2019-06-15T07:25:10.310Z,100929.75
2019-06-15T07:28:14.201Z,100931.18
2019-06-15T07:31:18.148Z,100945.78
2019-06-15T07:34:21.983Z,100930.86
2019-06-15T07:37:25.997Z,100917.08
2019-06-15T07:40:30.012Z,100908.69
2019-06-15T07:43:33.871Z,100893.08
2019-06-15T07:46:37.856Z,100893.52
2019-06-15T07:49:41.698Z,100899.77
2019-06-15T07:52:45.521Z,100883.55
2019-06-15T07:55:49.510Z,100876.59
2019-06-15T07:58:53.357Z,100887.67
2019-06-15T08:01:57.320Z,100890.67
2019-06-15T08:05:01.153Z,100895.97
2019-06-15T08:08:05.150Z,100904.90
2019-06-15T08:11:09.039Z,100892.41
2019-06-15T08:14:12.952Z,100882.80
2019-06-15T08:17:16.963Z,100871.41
2019-06-15T08:20:24.883Z,100860.83
2019-06-15T08:23:28.688Z,100859.96
2019-06-15T08:26:32.596Z,100855.28
2019-06-15T08:29:36.453Z,100850.66
2019-06-15T08:32:40.346Z,100856.69
2019-06-15T08:35:44.176Z,100846.31
2019-06-15T08:38:48.074Z,100844.06
2019-06-15T08:41:51.897Z,100840.80
2019-06-15T08:44:55.823Z,100841.84
2019-06-15T08:47:59.671Z,100865.71
2019-06-15T08:51:03.509Z,100860.27
2019-06-15T08:54:07.329Z,100850.36
2019-06-15T08:57:11.140Z,100855.60
2019-06-15T09:00:15.431Z,100845.07
2019-06-15T09:03:19.258Z,100840.65
2019-06-15T09:06:23.094Z,100831.73
2019-06-15T09:09:26.977Z,100833.48
2019-06-15T09:12:30.849Z,100822.44
2019-06-15T09:16:00.317Z,100821.34
2019-06-15T09:19:04.208Z,100819.00
2019-06-15T09:22:08.145Z,100818.25
2019-06-15T09:25:12.115Z,100821.71
2019-06-15T09:28:15.964Z,100831.78
2019-06-15T09:31:19.799Z,100835.45
2019-06-15T09:34:23.648Z,100834.70
2019-06-15T09:37:27.546Z,100825.37
2019-06-15T09:40:31.524Z,100825.55
2019-06-15T09:43:35.355Z,100826.33
2019-06-15T09:46:39.182Z,100818.42
2019-06-15T09:49:43.019Z,100827.28
2019-06-15T09:52:46.832Z,100827.85
2019-06-15T09:55:50.663Z,100817.47
2019-06-15T09:58:54.525Z,100799.30
2019-06-15T10:01:58.380Z,100794.65
2019-06-15T10:05:02.212Z,100796.83
2019-06-15T10:08:06.199Z,100806.95
2019-06-15T10:11:10.093Z,100842.35
2019-06-15T10:14:13.935Z,100867.68
2019-06-15T10:17:17.930Z,100888.81
2019-06-15T10:20:21.908Z,100897.87
2019-06-15T10:23:25.709Z,100897.95
2019-06-15T10:26:29.562Z,100884.00
2019-06-15T10:29:41.939Z,100862.59
2019-06-15T10:32:39.255Z,100847.66
2019-06-15T10:35:43.085Z,100826.28
2019-06-15T10:38:46.927Z,100793.80
2019-06-15T10:41:50.758Z,100783.31
2019-06-15T10:44:54.597Z,100796.61
2019-06-15T10:47:58.393Z,100849.78
2019-06-15T10:51:02.455Z,100881.53
2019-06-15T10:54:06.379Z,100886.78
2019-06-15T10:57:10.176Z,100875.62
2019-06-15T11:00:14.583Z,100856.06
2019-06-15T11:03:18.555Z,100841.14
2019-06-15T11:06:22.411Z,100821.95
2019-06-15T11:09:26.319Z,100821.80
2019-06-15T11:12:45.107Z,100827.50
2019-06-15T11:15:36.409Z,100864.94
2019-06-15T11:18:40.317Z,100859.77
2019-06-15T11:21:44.151Z,100879.66
2019-06-15T11:24:47.992Z,100912.80
2019-06-15T11:27:51.851Z,100942.70
2019-06-15T11:30:55.659Z,100937.89
2019-06-15T11:33:59.505Z,100909.13
2019-06-15T11:37:03.336Z,100890.50
2019-06-15T11:40:07.710Z,100888.27
2019-06-15T11:43:11.631Z,100891.91
2019-06-15T11:46:15.447Z,100884.17
2019-06-15T11:49:19.342Z,100896.39
2019-06-15T11:52:23.244Z,100888.44
2019-06-15T11:55:39.090Z,100868.76
2019-06-15T11:58:32.639Z,100855.02
2019-06-15T12:01:36.568Z,100858.34
2019-06-15T12:04:40.432Z,100864.20
2019-06-15T12:07:44.307Z,100877.91
2019-06-15T12:10:48.267Z,100870.83
2019-06-15T12:13:52.093Z,100866.02
2019-06-15T12:16:55.994Z,100858.01
2019-06-15T12:19:59.795Z,100854.75
2019-06-15T12:23:03.640Z,100843.34
2019-06-15T12:26:07.595Z,100820.53
2019-06-15T12:29:11.515Z,100824.05
2019-06-15T12:32:15.362Z,100827.70
2019-06-15T12:35:19.249Z,100823.11
2019-06-15T12:38:23.081Z,100826.18
2019-06-15T12:41:26.993Z,100828.08
2019-06-15T12:44:30.869Z,100825.59
2019-06-15T12:47:34.753Z,100827.02
2019-06-15T12:50:38.574Z,100811.01
2019-06-15T12:53:42.399Z,100805.30
2019-06-15T12:56:46.191Z,100812.45
2019-06-15T12:59:50.115Z,100851.04
2019-06-15T13:02:53.922Z,100908.91
2019-06-15T13:05:57.756Z,100913.69
2019-06-15T13:09:01.668Z,100877.21
2019-06-15T13:12:05.658Z,100900.67
2019-06-15T13:15:09.681Z,100915.05
2019-06-15T13:18:13.593Z,100882.96
2019-06-15T13:21:17.509Z,100868.33
2019-06-15T13:24:21.401Z,100882.41
2019-06-15T13:27:25.318Z,100870.48
2019-06-15T13:30:29.215Z,100888.78
2019-06-15T13:33:33.033Z,100870.70
2019-06-15T13:36:36.837Z,100880.22
2019-06-15T13:39:40.783Z,100882.66
2019-06-15T13:42:44.686Z,100888.52
2019-06-15T13:45:48.580Z,100891.76
2019-06-15T13:48:52.465Z,100894.18
2019-06-15T13:51:56.282Z,100889.47
2019-06-15T13:55:00.085Z,100891.44
2019-06-15T13:58:03.976Z,100891.50
2019-06-15T14:01:07.820Z,100884.72
2019-06-15T14:04:11.639Z,100885.34
2019-06-15T14:07:15.487Z,100879.36
2019-06-15T14:10:19.499Z,100875.50
2019-06-15T14:13:23.376Z,100877.13
2019-06-15T14:16:27.189Z,100892.90
2019-06-15T14:19:31.044Z,100899.50
2019-06-15T14:22:34.870Z,100882.48
2019-06-15T14:25:38.715Z,100877.37
2019-06-15T14:28:42.680Z,100898.15
2019-06-15T14:31:50.068Z,100901.90
2019-06-15T14:34:52.070Z,100904.39
2019-06-15T14:37:56.025Z,100907.16
2019-06-15T14:40:59.899Z,100910.32
2019-06-15T14:44:03.857Z,100898.89
2019-06-15T14:47:07.759Z,100899.52
2019-06-15T14:50:11.742Z,100902.77
2019-06-15T14:53:15.550Z,100905.28
2019-06-15T14:56:19.508Z,100905.95
2019-06-15T14:59:23.406Z,100904.52
2019-06-15T15:02:27.215Z,100912.39
2019-06-15T15:05:31.030Z,100910.98
2019-06-15T15:08:36.732Z,100904.28
2019-06-15T15:11:40.408Z,100903.17
2019-06-15T15:14:46.781Z,100904.35
2019-06-15T15:17:49.936Z,100911.38
2019-06-15T15:20:56.324Z,100911.22
2019-06-15T15:23:59.396Z,100909.02
2019-06-15T15:27:03.256Z,100914.77
2019-06-15T15:30:09.015Z,100919.96
2019-06-15T15:33:12.836Z,100912.66
2019-06-15T15:36:17.050Z,100919.77
2019-06-15T15:39:20.968Z,100918.02
2019-06-15T15:42:26.618Z,100921.30
2019-06-15T15:45:30.403Z,100926.50
2019-06-15T15:48:36.324Z,100921.39
2019-06-15T15:51:39.845Z,100930.77
2019-06-15T15:54:43.681Z,100932.33
2019-06-15T15:57:47.516Z,100931.25
2019-06-15T16:00:51.342Z,100931.47
2019-06-15T16:03:56.270Z,100929.03
2019-06-15T16:07:00.280Z,100924.67
2019-06-15T16:10:06.248Z,100923.02
2019-06-15T16:13:10.187Z,100926.52
2019-06-15T16:16:16.201Z,100925.95
2019-06-15T16:19:19.629Z,100936.05
2019-06-15T16:22:23.431Z,100936.74
2019-06-15T16:25:27.283Z,100943.28
2019-06-15T16:28:31.146Z,100943.06
2019-06-15T16:31:37.231Z,100947.64
2019-06-15T16:34:40.564Z,100957.52
2019-06-15T16:37:44.429Z,100964.22
2019-06-15T16:40:48.383Z,100965.64
2019-06-15T16:43:52.197Z,100976.23
2019-06-15T16:46:56.674Z,100988.76
2019-06-15T16:50:00.508Z,101000.09
2019-06-15T16:53:04.510Z,101003.05
2019-06-15T16:56:08.424Z,101013.72
2019-06-15T16:59:12.453Z,101010.87
2019-06-15T17:02:17.138Z,101013.33
2019-06-15T17:05:21.332Z,101022.80
2019-06-15T17:08:25.247Z,101020.09
2019-06-15T17:11:29.077Z,101025.16
2019-06-15T17:14:32.910Z,101028.20
2019-06-15T17:17:37.022Z,101037.42
2019-06-15T17:20:50.982Z,101037.59
2019-06-15T17:23:57.061Z,101036.70
2019-06-15T17:27:00.507Z,101038.26
2019-06-15T17:30:07.058Z,101039.70
2019-06-15T17:33:10.790Z,101040.57
2019-06-15T17:36:14.618Z,101036.80
2019-06-15T17:39:18.576Z,101047.46
2019-06-15T17:42:22.480Z,101050.70
2019-06-15T17:45:26.742Z,101057.45
2019-06-15T17:48:30.687Z,101054.30
2019-06-15T17:51:36.813Z,101056.36
2019-06-15T17:54:40.130Z,101059.69
2019-06-15T17:57:46.383Z,101063.03
2019-06-15T18:00:49.647Z,101065.52
2019-06-15T18:03:55.394Z,101060.32
2019-06-15T18:06:59.007Z,101055.09
2019-06-15T18:10:02.925Z,101065.80
2019-06-15T18:13:07.129Z,101059.42
2019-06-15T18:16:11.007Z,101056.46
2019-06-15T18:19:17.102Z,101053.81
2019-06-15T18:22:20.399Z,101050.90
2019-06-15T18:25:26.542Z,101049.69
2019-06-15T18:28:29.946Z,101043.58
2019-06-15T18:31:36.303Z,101036.63
2019-06-15T18:34:39.373Z,101042.83
2019-06-15T18:37:43.284Z,101053.20
2019-06-15T18:40:47.082Z,101049.91
2019-06-15T18:43:50.895Z,101058.21
2019-06-15T18:46:56.378Z,101053.05
2019-06-15T18:50:00.335Z,101049.65
2019-06-15T18:53:07.108Z,101049.89
2019-06-15T18:56:11.268Z,101051.43
2019-06-15T18:59:16.868Z,101054.77
2019-06-15T19:02:20.943Z,101062.44
2019-06-15T19:05:26.074Z,101057.39
2019-06-15T19:08:30.094Z,101060.46
2019-06-15T19:11:33.912Z,101054.71
2019-06-15T19:14:37.741Z,101055.84
2019-06-15T19:17:41.631Z,101060.66
2019-06-15T19:20:45.620Z,101061.69
2019-06-15T19:23:49.437Z,101061.62
2019-06-15T19:26:53.275Z,101063.98
2019-06-15T19:29:57.095Z,101063.69
2019-06-15T19:33:00.920Z,101061.34
2019-06-15T19:36:06.326Z,101067.73
2019-06-15T19:39:10.286Z,101081.20
2019-06-15T19:42:14.139Z,101087.25
2019-06-15T19:45:20.809Z,101108.72
2019-06-15T19:48:26.799Z,101101.28
2019-06-15T19:51:30.262Z,101119.39
2019-06-15T19:54:36.423Z,101119.15
2019-06-15T19:57:39.672Z,101131.78
2019-06-15T20:00:43.507Z,101151.39
2019-06-15T20:03:47.343Z,101168.06
2019-06-15T20:06:51.183Z,101176.83
2019-06-15T20:09:57.031Z,101182.08
2019-06-15T20:13:00.577Z,101192.92
2019-06-15T20:16:05.287Z,101193.06
2019-06-15T20:19:10.627Z,101196.33
2019-06-15T20:22:14.439Z,101196.92
2019-06-15T20:25:18.441Z,101197.41
2019-06-15T20:28:22.319Z,101206.89
2019-06-15T20:31:26.167Z,101213.77
2019-06-15T20:34:29.987Z,101206.74
2019-06-15T20:37:33.802Z,101211.76
2019-06-15T20:40:37.698Z,101210.30
2019-06-15T20:43:41.516Z,101220.66
2019-06-15T20:46:46.440Z,101217.53
2019-06-15T20:49:50.452Z,101231.67
2019-06-15T20:52:56.446Z,101240.48
2019-06-15T20:55:59.803Z,101251.08
2019-06-15T20:59:06.138Z,101263.47
2019-06-15T21:02:09.254Z,101269.18
2019-06-15T21:05:33.023Z,101281.90
2019-06-15T21:08:20.244Z,101292.32
2019-06-15T21:11:26.393Z,101299.02
2019-06-15T21:14:29.614Z,101315.89
2019-06-15T21:17:33.416Z,101322.94
2019-06-15T21:20:37.309Z,101330.76
2019-06-15T21:23:41.149Z,101344.02
2019-06-15T21:26:45.000Z,101355.17
2019-06-15T21:29:48.816Z,101352.58
2019-06-15T21:32:52.641Z,101358.74
2019-06-15T21:35:56.784Z,101365.64
2019-06-15T21:39:00.836Z,101373.19
2019-06-15T21:42:04.768Z,101377.18
2019-06-15T21:45:09.281Z,101378.65
2019-06-15T21:48:13.079Z,101381.91
2019-06-15T21:51:16.917Z,101380.21
2019-06-15T21:54:20.822Z,101379.63
2019-06-15T21:57:26.877Z,101380.18
2019-06-15T22:00:42.825Z,101376.55
2019-06-15T22:03:46.756Z,101389.59
2019-06-15T22:06:50.644Z,101396.43
2019-06-15T22:09:54.505Z,101399.01
2019-06-15T22:12:58.451Z,101403.52
2019-06-15T22:16:02.365Z,101405.49
2019-06-15T22:19:06.323Z,101407.48
2019-06-15T22:22:10.130Z,101415.45
2019-06-15T22:25:15.961Z,101415.92
2019-06-15T22:28:19.670Z,101411.09
2019-06-15T22:31:23.481Z,101412.78
2019-06-15T22:34:27.449Z,101426.63
2019-06-15T22:37:31.293Z,101429.77
2019-06-15T22:40:36.340Z,101422.34
2019-06-15T22:43:40.439Z,101433.41
2019-06-15T22:46:46.483Z,101435.83
2019-06-15T22:49:49.827Z,101440.27
2019-06-15T22:52:53.633Z,101430.77
2019-06-15T22:55:57.464Z,101419.91
2019-06-15T22:59:01.287Z,101419.41
2019-06-15T23:02:07.071Z,101421.25
2019-06-15T23:05:10.877Z,101417.63
2019-06-15T23:08:16.285Z,101417.52
2019-06-15T23:11:20.311Z,101417.16
2019-06-15T23:14:26.056Z,101424.13
2019-06-15T23:17:29.672Z,101429.68
2019-06-15T23:20:33.566Z,101431.05
2019-06-15T23:23:37.406Z,101428.39
2019-06-15T23:26:41.235Z,101432.00
2019-06-15T23:29:46.337Z,101432.97
2019-06-15T23:32:50.235Z,101440.19
2019-06-15T23:35:59.465Z,101433.69
2019-06-15T23:39:05.424Z,101436.02
2019-06-15T23:42:08.985Z,101426.12
2019-06-15T23:45:15.991Z,101422.80
2019-06-15T23:48:19.381Z,101425.63
2019-06-15T23:51:23.220Z,101442.33
2019-06-15T23:54:27.903Z,101443.80
2019-06-15T23:57:31.930Z,101443.95
